Fort Hall Indian Reservation, Idaho
Current Conditions -  °F | °C
As of 4:53 AM on Sunday 23 Nov 2014 (Local Time) from KPIH Reporting Station
Overcast Overcast  
Wind Chill: 20°   Ceiling: 7500
Heat Index: 31°   Visibility: 10mi
Dew Point: 29°   Wind: 16mph
Humidity: 92%   Direction: 220°SW
Pressure: 30.05"   Gusts: NA
Location:  42.98°N, 112.307°W
Report Text: KPIH 231153Z AUTO 22014KT 10SM FEW017 BKN075 OVC090 M01/M02 A3005 RMK AO2 UPB02E16SNB05E13B24E45 SLP187 P0000 60000 70032 T10061017 10011 21006 51036
Loading
Personal Weather Stations






























Interactive Weather Map New forecast layout! Learn more

10-Day Weather Forecast

Advertisements
Track Severe Weather on mobile